sensor_id;sensor_type;location;lat;lon;timestamp;temperature;humidity
19880;DHT22;10102;50.828;4.416;2022-08-25T00:01:21;25.40;99.90
19880;DHT22;10102;50.828;4.416;2022-08-25T00:03:48;25.20;99.90
19880;DHT22;10102;50.828;4.416;2022-08-25T00:06:14;25.20;99.90
19880;DHT22;10102;50.828;4.416;2022-08-25T00:08:41;25.10;99.90
19880;DHT22;10102;50.828;4.416;2022-08-25T00:11:11;25.00;99.90
19880;DHT22;10102;50.828;4.416;2022-08-25T00:13:38;25.10;99.90
19880;DHT22;10102;50.828;4.416;2022-08-25T00:16:05;25.00;99.90
19880;DHT22;10102;50.828;4.416;2022-08-25T00:18:31;25.20;99.90
19880;DHT22;10102;50.828;4.416;2022-08-25T00:20:57;25.20;99.90
19880;DHT22;10102;50.828;4.416;2022-08-25T00:23:23;25.10;99.90
19880;DHT22;10102;50.828;4.416;2022-08-25T00:25:49;25.20;99.90
19880;DHT22;10102;50.828;4.416;2022-08-25T00:28:16;24.90;99.90
19880;DHT22;10102;50.828;4.416;2022-08-25T00:30:43;25.00;99.90
19880;DHT22;10102;50.828;4.416;2022-08-25T00:33:09;24.90;99.90
19880;DHT22;10102;50.828;4.416;2022-08-25T00:35:35;24.80;99.90
19880;DHT22;10102;50.828;4.416;2022-08-25T00:38:01;24.70;99.90
19880;DHT22;10102;50.828;4.416;2022-08-25T00:40:28;24.50;99.90
19880;DHT22;10102;50.828;4.416;2022-08-25T00:42:54;24.70;99.90
19880;DHT22;10102;50.828;4.416;2022-08-25T00:45:21;24.60;99.90
19880;DHT22;10102;50.828;4.416;2022-08-25T00:47:47;24.60;99.90
19880;DHT22;10102;50.828;4.416;2022-08-25T00:50:14;24.30;99.90
19880;DHT22;10102;50.828;4.416;2022-08-25T00:52:44;24.50;99.90
19880;DHT22;10102;50.828;4.416;2022-08-25T00:57:45;24.10;99.90
19880;DHT22;10102;50.828;4.416;2022-08-25T01:00:20;24.00;99.90
19880;DHT22;10102;50.828;4.416;2022-08-25T01:02:46;24.10;99.90
19880;DHT22;10102;50.828;4.416;2022-08-25T01:05:12;24.10;99.90
19880;DHT22;10102;50.828;4.416;2022-08-25T01:07:40;24.30;99.90
19880;DHT22;10102;50.828;4.416;2022-08-25T01:10:08;24.00;99.90
19880;DHT22;10102;50.828;4.416;2022-08-25T01:12:35;24.00;99.90
19880;DHT22;10102;50.828;4.416;2022-08-25T01:15:04;24.00;99.90
19880;DHT22;10102;50.828;4.416;2022-08-25T01:17:50;23.90;99.90
19880;DHT22;10102;50.828;4.416;2022-08-25T01:20:19;23.90;99.90
19880;DHT22;10102;50.828;4.416;2022-08-25T01:22:45;23.60;99.90
19880;DHT22;10102;50.828;4.416;2022-08-25T01:27:49;23.70;99.90
19880;DHT22;10102;50.828;4.416;2022-08-25T01:30:15;23.70;99.90
19880;DHT22;10102;50.828;4.416;2022-08-25T01:32:40;23.90;99.90
19880;DHT22;10102;50.828;4.416;2022-08-25T01:35:06;23.80;99.90
19880;DHT22;10102;50.828;4.416;2022-08-25T01:37:35;23.50;99.90
19880;DHT22;10102;50.828;4.416;2022-08-25T01:40:01;23.60;99.90
19880;DHT22;10102;50.828;4.416;2022-08-25T01:49:51;23.60;99.90
19880;DHT22;10102;50.828;4.416;2022-08-25T01:52:24;23.70;99.90
19880;DHT22;10102;50.828;4.416;2022-08-25T01:54:52;23.60;99.90
19880;DHT22;10102;50.828;4.416;2022-08-25T01:57:17;23.30;99.90
19880;DHT22;10102;50.828;4.416;2022-08-25T01:59:43;23.40;99.90
19880;DHT22;10102;50.828;4.416;2022-08-25T02:02:09;23.50;99.90
19880;DHT22;10102;50.828;4.416;2022-08-25T02:04:35;23.30;99.90
19880;DHT22;10102;50.828;4.416;2022-08-25T02:07:03;23.30;99.90
19880;DHT22;10102;50.828;4.416;2022-08-25T02:09:29;23.40;99.90
19880;DHT22;10102;50.828;4.416;2022-08-25T02:11:56;23.20;99.90
19880;DHT22;10102;50.828;4.416;2022-08-25T02:14:22;23.20;99.90
19880;DHT22;10102;50.828;4.416;2022-08-25T02:16:50;23.30;99.90
19880;DHT22;10102;50.828;4.416;2022-08-25T02:19:17;23.00;99.90
19880;DHT22;10102;50.828;4.416;2022-08-25T02:21:43;23.20;99.90
19880;DHT22;10102;50.828;4.416;2022-08-25T02:24:10;23.10;99.90
19880;DHT22;10102;50.828;4.416;2022-08-25T02:26:36;22.90;99.90
19880;DHT22;10102;50.828;4.416;2022-08-25T02:29:03;23.10;99.90
19880;DHT22;10102;50.828;4.416;2022-08-25T02:31:30;23.10;99.90
19880;DHT22;10102;50.828;4.416;2022-08-25T02:33:55;23.00;99.90
19880;DHT22;10102;50.828;4.416;2022-08-25T02:36:22;23.10;99.90
19880;DHT22;10102;50.828;4.416;2022-08-25T02:38:48;23.20;99.90
19880;DHT22;10102;50.828;4.416;2022-08-25T02:41:22;23.00;99.90
19880;DHT22;10102;50.828;4.416;2022-08-25T02:43:49;22.80;99.90
19880;DHT22;10102;50.828;4.416;2022-08-25T02:46:17;22.70;99.90
19880;DHT22;10102;50.828;4.416;2022-08-25T02:48:44;22.90;99.90
19880;DHT22;10102;50.828;4.416;2022-08-25T02:51:10;23.00;99.90
19880;DHT22;10102;50.828;4.416;2022-08-25T02:53:37;23.00;99.90
19880;DHT22;10102;50.828;4.416;2022-08-25T02:56:10;23.00;99.90
19880;DHT22;10102;50.828;4.416;2022-08-25T02:58:37;23.00;99.90
19880;DHT22;10102;50.828;4.416;2022-08-25T03:01:04;22.70;99.90
19880;DHT22;10102;50.828;4.416;2022-08-25T03:03:32;22.80;99.90
19880;DHT22;10102;50.828;4.416;2022-08-25T03:05:59;22.60;99.90
19880;DHT22;10102;50.828;4.416;2022-08-25T03:08:25;22.60;99.90
19880;DHT22;10102;50.828;4.416;2022-08-25T03:10:51;22.80;99.90
19880;DHT22;10102;50.828;4.416;2022-08-25T03:13:17;22.90;99.90
19880;DHT22;10102;50.828;4.416;2022-08-25T03:15:43;22.70;99.90
19880;DHT22;10102;50.828;4.416;2022-08-25T03:18:10;22.70;99.90
19880;DHT22;10102;50.828;4.416;2022-08-25T03:20:37;22.70;99.90
19880;DHT22;10102;50.828;4.416;2022-08-25T03:23:04;22.50;99.90
19880;DHT22;10102;50.828;4.416;2022-08-25T03:25:30;22.80;99.90
19880;DHT22;10102;50.828;4.416;2022-08-25T03:28:14;22.50;99.90
19880;DHT22;10102;50.828;4.416;2022-08-25T03:30:41;22.50;99.90
19880;DHT22;10102;50.828;4.416;2022-08-25T03:33:07;22.70;99.90
19880;DHT22;10102;50.828;4.416;2022-08-25T03:35:33;22.60;99.90
19880;DHT22;10102;50.828;4.416;2022-08-25T03:37:59;22.60;99.90
19880;DHT22;10102;50.828;4.416;2022-08-25T03:40:26;22.40;99.90
19880;DHT22;10102;50.828;4.416;2022-08-25T03:42:52;22.30;99.90
19880;DHT22;10102;50.828;4.416;2022-08-25T03:45:20;22.40;99.90
19880;DHT22;10102;50.828;4.416;2022-08-25T03:47:47;22.50;99.90
19880;DHT22;10102;50.828;4.416;2022-08-25T03:50:15;22.20;99.90
19880;DHT22;10102;50.828;4.416;2022-08-25T03:52:41;22.40;99.90
19880;DHT22;10102;50.828;4.416;2022-08-25T03:55:09;22.40;99.90
19880;DHT22;10102;50.828;4.416;2022-08-25T03:57:36;22.40;99.90
19880;DHT22;10102;50.828;4.416;2022-08-25T04:00:04;22.50;99.90
19880;DHT22;10102;50.828;4.416;2022-08-25T04:02:30;22.50;99.90
19880;DHT22;10102;50.828;4.416;2022-08-25T04:04:58;22.30;99.90
19880;DHT22;10102;50.828;4.416;2022-08-25T04:07:23;22.40;99.90
19880;DHT22;10102;50.828;4.416;2022-08-25T04:09:49;22.20;99.90
19880;DHT22;10102;50.828;4.416;2022-08-25T04:12:15;22.20;99.90
19880;DHT22;10102;50.828;4.416;2022-08-25T04:17:07;22.20;99.90
19880;DHT22;10102;50.828;4.416;2022-08-25T04:19:33;22.30;99.90
19880;DHT22;10102;50.828;4.416;2022-08-25T04:22:00;22.30;99.90
19880;DHT22;10102;50.828;4.416;2022-08-25T04:24:25;22.10;99.90
19880;DHT22;10102;50.828;4.416;2022-08-25T04:26:51;22.30;99.90
19880;DHT22;10102;50.828;4.416;2022-08-25T04:29:20;22.30;99.90
19880;DHT22;10102;50.828;4.416;2022-08-25T04:31:47;22.50;99.90
19880;DHT22;10102;50.828;4.416;2022-08-25T04:34:18;22.40;99.90
19880;DHT22;10102;50.828;4.416;2022-08-25T04:36:45;22.40;99.90
19880;DHT22;10102;50.828;4.416;2022-08-25T04:39:11;22.20;99.90
19880;DHT22;10102;50.828;4.416;2022-08-25T04:41:37;22.40;99.90
19880;DHT22;10102;50.828;4.416;2022-08-25T04:44:04;22.30;99.90
19880;DHT22;10102;50.828;4.416;2022-08-25T04:46:32;22.40;99.90
19880;DHT22;10102;50.828;4.416;2022-08-25T04:49:01;22.30;99.90
19880;DHT22;10102;50.828;4.416;2022-08-25T04:51:36;22.40;99.90
19880;DHT22;10102;50.828;4.416;2022-08-25T04:54:06;22.20;99.90
19880;DHT22;10102;50.828;4.416;2022-08-25T04:56:33;22.30;99.90
19880;DHT22;10102;50.828;4.416;2022-08-25T04:59:11;22.10;99.90
19880;DHT22;10102;50.828;4.416;2022-08-25T05:01:38;22.10;99.90
19880;DHT22;10102;50.828;4.416;2022-08-25T05:04:06;22.10;99.90
19880;DHT22;10102;50.828;4.416;2022-08-25T05:06:33;22.20;99.90
19880;DHT22;10102;50.828;4.416;2022-08-25T05:08:59;22.40;99.90
19880;DHT22;10102;50.828;4.416;2022-08-25T05:11:26;22.40;99.90
19880;DHT22;10102;50.828;4.416;2022-08-25T05:13:54;22.40;99.90
19880;DHT22;10102;50.828;4.416;2022-08-25T05:16:22;22.60;99.90
19880;DHT22;10102;50.828;4.416;2022-08-25T05:21:18;22.30;99.90
19880;DHT22;10102;50.828;4.416;2022-08-25T05:23:44;23.10;99.90
19880;DHT22;10102;50.828;4.416;2022-08-25T05:26:17;22.60;99.90
19880;DHT22;10102;50.828;4.416;2022-08-25T05:28:43;22.80;99.90
19880;DHT22;10102;50.828;4.416;2022-08-25T05:31:11;22.70;99.90
19880;DHT22;10102;50.828;4.416;2022-08-25T05:33:38;22.80;99.90
19880;DHT22;10102;50.828;4.416;2022-08-25T05:36:05;23.10;99.90
19880;DHT22;10102;50.828;4.416;2022-08-25T05:38:31;23.10;99.90
19880;DHT22;10102;50.828;4.416;2022-08-25T05:40:58;23.10;99.90
19880;DHT22;10102;50.828;4.416;2022-08-25T05:43:24;23.30;99.90
19880;DHT22;10102;50.828;4.416;2022-08-25T05:45:53;23.30;99.90
19880;DHT22;10102;50.828;4.416;2022-08-25T05:48:20;23.30;99.90
19880;DHT22;10102;50.828;4.416;2022-08-25T05:50:57;23.50;99.90
19880;DHT22;10102;50.828;4.416;2022-08-25T05:53:25;23.60;99.90
19880;DHT22;10102;50.828;4.416;2022-08-25T05:55:52;23.80;99.90
19880;DHT22;10102;50.828;4.416;2022-08-25T05:58:20;23.70;99.90
19880;DHT22;10102;50.828;4.416;2022-08-25T06:00:46;24.00;99.90
19880;DHT22;10102;50.828;4.416;2022-08-25T06:03:12;24.20;99.90
19880;DHT22;10102;50.828;4.416;2022-08-25T06:05:38;24.10;99.90
19880;DHT22;10102;50.828;4.416;2022-08-25T06:08:04;24.10;99.90
19880;DHT22;10102;50.828;4.416;2022-08-25T06:10:29;24.10;99.90
19880;DHT22;10102;50.828;4.416;2022-08-25T06:12:55;24.20;99.90
19880;DHT22;10102;50.828;4.416;2022-08-25T06:15:22;24.30;99.90
19880;DHT22;10102;50.828;4.416;2022-08-25T06:17:50;24.50;99.90
19880;DHT22;10102;50.828;4.416;2022-08-25T06:20:21;24.50;99.90
19880;DHT22;10102;50.828;4.416;2022-08-25T06:22:48;24.50;99.90
19880;DHT22;10102;50.828;4.416;2022-08-25T06:25:18;24.50;99.90
19880;DHT22;10102;50.828;4.416;2022-08-25T06:27:44;24.70;99.90
19880;DHT22;10102;50.828;4.416;2022-08-25T06:30:14;24.70;99.90
19880;DHT22;10102;50.828;4.416;2022-08-25T06:32:43;24.80;99.90
19880;DHT22;10102;50.828;4.416;2022-08-25T06:35:11;24.80;99.90
19880;DHT22;10102;50.828;4.416;2022-08-25T06:37:37;24.80;99.90
19880;DHT22;10102;50.828;4.416;2022-08-25T06:40:05;24.90;99.90
19880;DHT22;10102;50.828;4.416;2022-08-25T06:42:34;25.00;99.90
19880;DHT22;10102;50.828;4.416;2022-08-25T06:45:00;25.10;99.90
19880;DHT22;10102;50.828;4.416;2022-08-25T06:47:26;25.30;99.90
19880;DHT22;10102;50.828;4.416;2022-08-25T06:49:52;25.30;99.90
19880;DHT22;10102;50.828;4.416;2022-08-25T06:52:18;25.40;99.90
19880;DHT22;10102;50.828;4.416;2022-08-25T06:54:44;25.40;99.90
19880;DHT22;10102;50.828;4.416;2022-08-25T06:57:10;25.40;99.90
19880;DHT22;10102;50.828;4.416;2022-08-25T06:59:36;25.50;99.90
19880;DHT22;10102;50.828;4.416;2022-08-25T07:02:04;25.70;99.90
19880;DHT22;10102;50.828;4.416;2022-08-25T07:04:31;25.90;99.90
19880;DHT22;10102;50.828;4.416;2022-08-25T07:06:56;25.90;99.90
19880;DHT22;10102;50.828;4.416;2022-08-25T07:09:22;26.00;99.90
19880;DHT22;10102;50.828;4.416;2022-08-25T07:11:48;26.20;99.90
19880;DHT22;10102;50.828;4.416;2022-08-25T07:14:15;26.00;99.90
19880;DHT22;10102;50.828;4.416;2022-08-25T07:16:41;25.90;99.90
19880;DHT22;10102;50.828;4.416;2022-08-25T07:19:07;26.00;99.90
19880;DHT22;10102;50.828;4.416;2022-08-25T07:21:35;25.70;99.90
19880;DHT22;10102;50.828;4.416;2022-08-25T07:24:07;25.70;99.90
19880;DHT22;10102;50.828;4.416;2022-08-25T07:26:34;25.40;99.90
19880;DHT22;10102;50.828;4.416;2022-08-25T07:29:02;25.60;99.90
19880;DHT22;10102;50.828;4.416;2022-08-25T07:31:27;25.60;99.90
19880;DHT22;10102;50.828;4.416;2022-08-25T07:33:53;25.70;99.90
19880;DHT22;10102;50.828;4.416;2022-08-25T07:36:38;25.70;99.90
19880;DHT22;10102;50.828;4.416;2022-08-25T07:39:04;25.90;99.90
19880;DHT22;10102;50.828;4.416;2022-08-25T07:41:37;26.00;99.90
19880;DHT22;10102;50.828;4.416;2022-08-25T07:44:04;26.30;99.90
19880;DHT22;10102;50.828;4.416;2022-08-25T07:46:30;26.30;99.90
19880;DHT22;10102;50.828;4.416;2022-08-25T07:48:56;26.40;99.90
19880;DHT22;10102;50.828;4.416;2022-08-25T07:51:22;26.40;99.90
19880;DHT22;10102;50.828;4.416;2022-08-25T07:53:47;26.50;99.90
19880;DHT22;10102;50.828;4.416;2022-08-25T07:56:15;26.50;99.90
19880;DHT22;10102;50.828;4.416;2022-08-25T07:58:41;26.50;99.90
19880;DHT22;10102;50.828;4.416;2022-08-25T08:01:14;26.50;99.90
19880;DHT22;10102;50.828;4.416;2022-08-25T08:03:40;26.40;99.90
19880;DHT22;10102;50.828;4.416;2022-08-25T08:06:08;26.70;99.90
19880;DHT22;10102;50.828;4.416;2022-08-25T08:08:36;26.50;99.90
19880;DHT22;10102;50.828;4.416;2022-08-25T08:11:03;26.60;99.90
19880;DHT22;10102;50.828;4.416;2022-08-25T08:13:28;26.60;99.90
19880;DHT22;10102;50.828;4.416;2022-08-25T08:15:54;26.60;99.90
19880;DHT22;10102;50.828;4.416;2022-08-25T08:18:20;26.60;99.90
19880;DHT22;10102;50.828;4.416;2022-08-25T08:20:47;26.80;99.90
19880;DHT22;10102;50.828;4.416;2022-08-25T08:23:13;26.80;99.90
19880;DHT22;10102;50.828;4.416;2022-08-25T08:25:39;27.10;99.90
19880;DHT22;10102;50.828;4.416;2022-08-25T08:28:05;27.20;99.90
19880;DHT22;10102;50.828;4.416;2022-08-25T08:30:31;27.40;99.90
19880;DHT22;10102;50.828;4.416;2022-08-25T08:32:57;27.30;99.90
19880;DHT22;10102;50.828;4.416;2022-08-25T08:35:22;27.60;99.90
19880;DHT22;10102;50.828;4.416;2022-08-25T08:37:48;27.70;99.90
19880;DHT22;10102;50.828;4.416;2022-08-25T08:40:16;27.70;99.90
19880;DHT22;10102;50.828;4.416;2022-08-25T08:48:42;28.20;99.90
19880;DHT22;10102;50.828;4.416;2022-08-25T08:53:55;28.50;99.90
19880;DHT22;10102;50.828;4.416;2022-08-25T08:56:38;28.70;99.90
19880;DHT22;10102;50.828;4.416;2022-08-25T08:59:14;28.80;99.90
19880;DHT22;10102;50.828;4.416;2022-08-25T09:01:49;28.90;99.90
19880;DHT22;10102;50.828;4.416;2022-08-25T09:04:26;29.10;99.90
19880;DHT22;10102;50.828;4.416;2022-08-25T09:06:54;29.30;99.90
19880;DHT22;10102;50.828;4.416;2022-08-25T09:09:28;29.50;99.90
19880;DHT22;10102;50.828;4.416;2022-08-25T09:12:03;29.60;99.90
19880;DHT22;10102;50.828;4.416;2022-08-25T09:25:28;29.40;99.90
19880;DHT22;10102;50.828;4.416;2022-08-25T09:30:53;29.90;99.90
19880;DHT22;10102;50.828;4.416;2022-08-25T09:33:24;29.70;99.90
19880;DHT22;10102;50.828;4.416;2022-08-25T09:35:51;29.70;99.90
19880;DHT22;10102;50.828;4.416;2022-08-25T09:38:18;29.90;99.90
19880;DHT22;10102;50.828;4.416;2022-08-25T09:40:54;30.10;99.90
19880;DHT22;10102;50.828;4.416;2022-08-25T09:48:52;30.70;98.20
19880;DHT22;10102;50.828;4.416;2022-08-25T09:51:26;31.00;98.70
19880;DHT22;10102;50.828;4.416;2022-08-25T09:56:57;31.20;95.90
19880;DHT22;10102;50.828;4.416;2022-08-25T10:01:57;31.40;95.40
19880;DHT22;10102;50.828;4.416;2022-08-25T10:04:29;31.50;93.50
19880;DHT22;10102;50.828;4.416;2022-08-25T10:07:03;31.70;94.10
19880;DHT22;10102;50.828;4.416;2022-08-25T10:09:38;31.60;93.00
19880;DHT22;10102;50.828;4.416;2022-08-25T10:12:29;31.70;93.10
19880;DHT22;10102;50.828;4.416;2022-08-25T10:14:57;31.80;92.50
19880;DHT22;10102;50.828;4.416;2022-08-25T10:17:27;32.10;92.90
19880;DHT22;10102;50.828;4.416;2022-08-25T10:22:33;32.50;92.30
19880;DHT22;10102;50.828;4.416;2022-08-25T10:25:00;32.30;89.70
19880;DHT22;10102;50.828;4.416;2022-08-25T10:27:33;32.50;89.40
19880;DHT22;10102;50.828;4.416;2022-08-25T10:30:06;32.70;88.50
19880;DHT22;10102;50.828;4.416;2022-08-25T10:32:55;32.90;86.70
19880;DHT22;10102;50.828;4.416;2022-08-25T10:44:14;33.50;81.10
19880;DHT22;10102;50.828;4.416;2022-08-25T10:49:49;33.50;80.20
19880;DHT22;10102;50.828;4.416;2022-08-25T10:52:43;33.70;81.60
19880;DHT22;10102;50.828;4.416;2022-08-25T10:55:27;33.90;80.10
19880;DHT22;10102;50.828;4.416;2022-08-25T11:00:52;34.60;78.70
19880;DHT22;10102;50.828;4.416;2022-08-25T11:04:03;35.00;77.00
19880;DHT22;10102;50.828;4.416;2022-08-25T11:06:51;35.50;73.70
19880;DHT22;10102;50.828;4.416;2022-08-25T11:09:22;36.40;73.10
19880;DHT22;10102;50.828;4.416;2022-08-25T11:19:51;41.80;59.20
19880;DHT22;10102;50.828;4.416;2022-08-25T11:22:28;42.60;57.80
19880;DHT22;10102;50.828;4.416;2022-08-25T11:30:51;44.40;52.70
19880;DHT22;10102;50.828;4.416;2022-08-25T11:33:22;45.30;53.20
19880;DHT22;10102;50.828;4.416;2022-08-25T11:38:54;47.60;49.60
19880;DHT22;10102;50.828;4.416;2022-08-25T11:41:50;48.40;47.40
19880;DHT22;10102;50.828;4.416;2022-08-25T11:47:26;48.90;45.90
19880;DHT22;10102;50.828;4.416;2022-08-25T11:50:03;50.00;44.80
19880;DHT22;10102;50.828;4.416;2022-08-25T11:55:05;51.00;43.90
19880;DHT22;10102;50.828;4.416;2022-08-25T11:57:31;51.20;43.60
19880;DHT22;10102;50.828;4.416;2022-08-25T12:00:05;49.60;42.90
19880;DHT22;10102;50.828;4.416;2022-08-25T12:02:37;49.20;43.80
19880;DHT22;10102;50.828;4.416;2022-08-25T12:10:20;42.20;49.90
19880;DHT22;10102;50.828;4.416;2022-08-25T12:13:00;41.40;51.30
19880;DHT22;10102;50.828;4.416;2022-08-25T12:23:43;48.90;46.20
19880;DHT22;10102;50.828;4.416;2022-08-25T12:26:21;51.10;43.20
19880;DHT22;10102;50.828;4.416;2022-08-25T12:36:58;55.70;38.80
19880;DHT22;10102;50.828;4.416;2022-08-25T12:39:32;56.70;38.20
19880;DHT22;10102;50.828;4.416;2022-08-25T12:42:06;57.30;37.30
19880;DHT22;10102;50.828;4.416;2022-08-25T12:44:47;58.30;37.60
19880;DHT22;10102;50.828;4.416;2022-08-25T12:47:32;58.60;35.80
19880;DHT22;10102;50.828;4.416;2022-08-25T12:50:29;57.70;35.30
19880;DHT22;10102;50.828;4.416;2022-08-25T12:55:32;52.40;39.00
19880;DHT22;10102;50.828;4.416;2022-08-25T12:57:59;51.50;39.30
19880;DHT22;10102;50.828;4.416;2022-08-25T13:00:30;51.90;39.60
19880;DHT22;10102;50.828;4.416;2022-08-25T13:03:36;53.20;38.50
19880;DHT22;10102;50.828;4.416;2022-08-25T13:06:20;55.40;37.20
19880;DHT22;10102;50.828;4.416;2022-08-25T13:11:50;56.20;35.90
19880;DHT22;10102;50.828;4.416;2022-08-25T13:14:40;54.40;37.20
19880;DHT22;10102;50.828;4.416;2022-08-25T13:17:07;54.70;36.60
19880;DHT22;10102;50.828;4.416;2022-08-25T13:19:34;53.40;37.70
19880;DHT22;10102;50.828;4.416;2022-08-25T13:22:08;53.20;37.30
19880;DHT22;10102;50.828;4.416;2022-08-25T13:24:39;51.60;38.90
19880;DHT22;10102;50.828;4.416;2022-08-25T13:27:08;48.50;40.50
19880;DHT22;10102;50.828;4.416;2022-08-25T13:29:51;48.20;41.10
19880;DHT22;10102;50.828;4.416;2022-08-25T13:32:26;47.00;41.70
19880;DHT22;10102;50.828;4.416;2022-08-25T13:35:16;47.30;42.90
19880;DHT22;10102;50.828;4.416;2022-08-25T13:37:42;46.40;42.90
19880;DHT22;10102;50.828;4.416;2022-08-25T13:40:15;45.90;43.10
19880;DHT22;10102;50.828;4.416;2022-08-25T13:42:48;44.80;44.10
19880;DHT22;10102;50.828;4.416;2022-08-25T13:45:17;42.50;47.10
19880;DHT22;10102;50.828;4.416;2022-08-25T13:47:45;41.80;49.00
19880;DHT22;10102;50.828;4.416;2022-08-25T13:52:52;41.10;48.90
19880;DHT22;10102;50.828;4.416;2022-08-25T13:55:21;40.80;49.40
19880;DHT22;10102;50.828;4.416;2022-08-25T13:57:47;40.20;50.50
19880;DHT22;10102;50.828;4.416;2022-08-25T14:00:28;39.60;59.60
19880;DHT22;10102;50.828;4.416;2022-08-25T14:02:54;39.50;51.00
19880;DHT22;10102;50.828;4.416;2022-08-25T14:08:02;41.70;47.60
19880;DHT22;10102;50.828;4.416;2022-08-25T14:10:40;42.10;48.30
19880;DHT22;10102;50.828;4.416;2022-08-25T14:13:27;45.20;45.30
19880;DHT22;10102;50.828;4.416;2022-08-25T14:15:53;46.50;43.70
19880;DHT22;10102;50.828;4.416;2022-08-25T14:18:24;45.50;44.40
19880;DHT22;10102;50.828;4.416;2022-08-25T14:20:52;45.10;48.10
19880;DHT22;10102;50.828;4.416;2022-08-25T14:23:24;45.30;49.70
19880;DHT22;10102;50.828;4.416;2022-08-25T14:25:52;46.00;49.20
19880;DHT22;10102;50.828;4.416;2022-08-25T14:28:22;47.70;48.40
19880;DHT22;10102;50.828;4.416;2022-08-25T14:31:11;48.40;47.30
19880;DHT22;10102;50.828;4.416;2022-08-25T14:33:48;48.50;47.40
19880;DHT22;10102;50.828;4.416;2022-08-25T14:36:15;49.20;46.40
19880;DHT22;10102;50.828;4.416;2022-08-25T14:38:41;49.40;46.10
19880;DHT22;10102;50.828;4.416;2022-08-25T14:41:06;49.80;46.00
19880;DHT22;10102;50.828;4.416;2022-08-25T14:43:33;48.80;46.50
19880;DHT22;10102;50.828;4.416;2022-08-25T14:46:01;46.50;48.40
19880;DHT22;10102;50.828;4.416;2022-08-25T14:48:38;45.40;56.80
19880;DHT22;10102;50.828;4.416;2022-08-25T14:51:05;45.40;49.00
19880;DHT22;10102;50.828;4.416;2022-08-25T14:53:31;45.60;48.00
19880;DHT22;10102;50.828;4.416;2022-08-25T14:55:58;45.50;48.50
19880;DHT22;10102;50.828;4.416;2022-08-25T14:58:24;46.00;48.50
19880;DHT22;10102;50.828;4.416;2022-08-25T15:00:50;45.90;48.60
19880;DHT22;10102;50.828;4.416;2022-08-25T15:03:30;44.90;49.50
19880;DHT22;10102;50.828;4.416;2022-08-25T15:05:57;44.70;50.00
19880;DHT22;10102;50.828;4.416;2022-08-25T15:08:24;45.00;49.10
19880;DHT22;10102;50.828;4.416;2022-08-25T15:11:08;45.20;55.60
19880;DHT22;10102;50.828;4.416;2022-08-25T15:13:34;45.50;49.40
19880;DHT22;10102;50.828;4.416;2022-08-25T15:16:00;45.70;48.60
19880;DHT22;10102;50.828;4.416;2022-08-25T15:18:25;46.00;48.30
19880;DHT22;10102;50.828;4.416;2022-08-25T15:20:51;46.40;48.00
19880;DHT22;10102;50.828;4.416;2022-08-25T15:23:18;46.80;47.60
19880;DHT22;10102;50.828;4.416;2022-08-25T15:25:45;42.50;56.40
19880;DHT22;10102;50.828;4.416;2022-08-25T15:28:12;45.10;51.10
19880;DHT22;10102;50.828;4.416;2022-08-25T15:30:38;44.90;51.50
19880;DHT22;10102;50.828;4.416;2022-08-25T15:33:03;44.30;52.90
19880;DHT22;10102;50.828;4.416;2022-08-25T15:35:29;44.10;53.60
19880;DHT22;10102;50.828;4.416;2022-08-25T15:37:55;43.70;54.50
19880;DHT22;10102;50.828;4.416;2022-08-25T15:40:21;43.90;54.90
19880;DHT22;10102;50.828;4.416;2022-08-25T15:42:47;44.20;55.20
19880;DHT22;10102;50.828;4.416;2022-08-25T15:45:13;43.80;55.90
19880;DHT22;10102;50.828;4.416;2022-08-25T15:47:38;44.10;56.30
19880;DHT22;10102;50.828;4.416;2022-08-25T15:50:11;44.20;56.00
19880;DHT22;10102;50.828;4.416;2022-08-25T15:52:39;42.40;67.20
19880;DHT22;10102;50.828;4.416;2022-08-25T15:55:05;42.70;58.20
19880;DHT22;10102;50.828;4.416;2022-08-25T15:57:32;42.30;59.50
19880;DHT22;10102;50.828;4.416;2022-08-25T15:59:57;41.00;73.40
19880;DHT22;10102;50.828;4.416;2022-08-25T16:02:23;41.10;61.00
19880;DHT22;10102;50.828;4.416;2022-08-25T16:04:50;41.40;60.30
19880;DHT22;10102;50.828;4.416;2022-08-25T16:07:18;40.60;61.30
19880;DHT22;10102;50.828;4.416;2022-08-25T16:09:43;40.30;63.00
19880;DHT22;10102;50.828;4.416;2022-08-25T16:12:09;39.60;76.90
19880;DHT22;10102;50.828;4.416;2022-08-25T16:14:36;39.30;65.40
19880;DHT22;10102;50.828;4.416;2022-08-25T16:17:03;39.30;65.20
19880;DHT22;10102;50.828;4.416;2022-08-25T16:19:29;38.60;79.70
19880;DHT22;10102;50.828;4.416;2022-08-25T16:21:56;38.60;67.60
19880;DHT22;10102;50.828;4.416;2022-08-25T16:24:22;38.30;68.40
19880;DHT22;10102;50.828;4.416;2022-08-25T16:26:48;37.90;68.60
19880;DHT22;10102;50.828;4.416;2022-08-25T16:29:15;38.00;67.90
19880;DHT22;10102;50.828;4.416;2022-08-25T16:31:41;41.30;71.30
19880;DHT22;10102;50.828;4.416;2022-08-25T16:34:07;38.40;70.10
19880;DHT22;10102;50.828;4.416;2022-08-25T16:36:33;37.70;70.00
19880;DHT22;10102;50.828;4.416;2022-08-25T16:38:58;37.50;71.90
19880;DHT22;10102;50.828;4.416;2022-08-25T16:41:28;37.00;86.20
19880;DHT22;10102;50.828;4.416;2022-08-25T16:44:00;37.10;74.40
19880;DHT22;10102;50.828;4.416;2022-08-25T16:46:25;36.60;75.00
19880;DHT22;10102;50.828;4.416;2022-08-25T16:48:52;36.20;76.90
19880;DHT22;10102;50.828;4.416;2022-08-25T16:51:19;36.10;77.50
19880;DHT22;10102;50.828;4.416;2022-08-25T16:53:46;35.50;78.90
19880;DHT22;10102;50.828;4.416;2022-08-25T16:56:33;38.00;83.30
19880;DHT22;10102;50.828;4.416;2022-08-25T16:59:01;34.90;88.80
19880;DHT22;10102;50.828;4.416;2022-08-25T17:01:28;34.30;81.50
19880;DHT22;10102;50.828;4.416;2022-08-25T17:03:56;34.20;82.30
19880;DHT22;10102;50.828;4.416;2022-08-25T17:06:24;33.90;83.10
19880;DHT22;10102;50.828;4.416;2022-08-25T17:08:50;33.50;93.60
19880;DHT22;10102;50.828;4.416;2022-08-25T17:11:19;32.80;91.30
19880;DHT22;10102;50.828;4.416;2022-08-25T17:13:50;32.20;95.40
19880;DHT22;10102;50.828;4.416;2022-08-25T17:16:17;32.20;95.60
19880;DHT22;10102;50.828;4.416;2022-08-25T17:21:12;31.40;91.20
19880;DHT22;10102;50.828;4.416;2022-08-25T17:23:40;31.40;97.40
19880;DHT22;10102;50.828;4.416;2022-08-25T17:26:09;30.90;99.10
19880;DHT22;10102;50.828;4.416;2022-08-25T17:28:36;31.10;92.70
19880;DHT22;10102;50.828;4.416;2022-08-25T17:31:01;30.60;99.90
19880;DHT22;10102;50.828;4.416;2022-08-25T17:33:27;30.70;99.90
19880;DHT22;10102;50.828;4.416;2022-08-25T17:35:55;30.60;94.00
19880;DHT22;10102;50.828;4.416;2022-08-25T17:38:22;30.50;94.40
19880;DHT22;10102;50.828;4.416;2022-08-25T17:40:57;30.40;99.90
19880;DHT22;10102;50.828;4.416;2022-08-25T17:43:24;30.20;99.90
19880;DHT22;10102;50.828;4.416;2022-08-25T17:45:51;30.20;99.90
19880;DHT22;10102;50.828;4.416;2022-08-25T17:48:18;30.00;99.90